Time;durP1;ratioP1;P1;durP2;ratioP2;P2;SDS_P1;SDS_P2;PMS_P1;PMS_P2;Temp;Humidity;BMP_temperature;BMP_pressure;BME280_temperature;BME280_humidity;BME280_pressure;Samples;Min_cycle;Max_cycle;Signal;HPM_P1;HPM_P2
2021/08/20 00:00:17;;;;;;;0.00;0.00;;;15.10;99.90;;;;;;6184236;23;20039;-88
2021/08/20 00:02:44;;;;;;;0.00;0.00;;;15.10;99.90;;;;;;6208088;23;20434;-87
2021/08/20 00:05:11;;;;;;;0.00;0.00;;;15.00;99.90;;;;;;6183387;23;20158;-88
2021/08/20 00:07:38;;;;;;;0.10;0.10;;;15.10;99.90;;;;;;6208068;23;20019;-87
2021/08/20 00:10:06;;;;;;;0.10;0.10;;;15.00;99.90;;;;;;6233445;23;20009;-88
2021/08/20 00:12:34;;;;;;;0.00;0.00;;;15.00;99.90;;;;;;6208424;23;20009;-87
2021/08/20 00:15:01;;;;;;;0.20;0.20;;;15.10;99.90;;;;;;6233242;23;20016;-88
2021/08/20 00:17:28;;;;;;;0.13;0.10;;;15.00;99.90;;;;;;6257877;23;20012;-87
2021/08/20 00:19:55;;;;;;;0.00;0.00;;;15.10;99.90;;;;;;6208609;23;20008;-87
2021/08/20 00:22:22;;;;;;;0.00;0.00;;;15.10;99.90;;;;;;6208188;23;20009;-87
2021/08/20 00:24:50;;;;;;;0.30;0.15;;;15.10;99.90;;;;;;6208633;23;20019;-87
2021/08/20 00:27:17;;;;;;;0.00;0.00;;;15.10;99.90;;;;;;6232905;23;20005;-88
2021/08/20 00:29:43;;;;;;;0.00;0.00;;;15.10;99.90;;;;;;6207980;23;20015;-88
2021/08/20 00:32:10;;;;;;;0.00;0.00;;;15.10;99.90;;;;;;6233050;23;20329;-88
2021/08/20 00:34:37;;;;;;;0.00;0.00;;;15.10;99.90;;;;;;6232507;23;20013;-88
2021/08/20 00:37:04;;;;;;;0.00;0.00;;;15.10;99.90;;;;;;6208164;23;20015;-87
2021/08/20 00:39:31;;;;;;;0.00;0.00;;;15.10;99.90;;;;;;6232298;23;20032;-88
2021/08/20 00:41:58;;;;;;;0.00;0.00;;;15.10;99.90;;;;;;6208036;23;20077;-87
2021/08/20 00:44:25;;;;;;;0.05;0.05;;;15.10;99.90;;;;;;6232340;23;20008;-88
2021/08/20 00:46:51;;;;;;;0.00;0.00;;;15.10;99.90;;;;;;6232948;23;20425;-87
2021/08/20 00:49:18;;;;;;;0.00;0.00;;;15.10;99.90;;;;;;6183374;23;20017;-88
2021/08/20 00:51:45;;;;;;;0.08;0.08;;;15.10;99.90;;;;;;6207346;23;20013;-87
2021/08/20 00:54:14;;;;;;;0.00;0.00;;;15.10;99.90;;;;;;6183266;23;20023;-87
2021/08/20 00:56:43;;;;;;;0.10;0.10;;;15.10;99.90;;;;;;6232096;23;20382;-86
2021/08/20 00:59:12;;;;;;;0.00;0.00;;;15.00;99.90;;;;;;6232530;23;20016;-87
2021/08/20 01:01:39;;;;;;;0.00;0.00;;;15.00;99.90;;;;;;6232275;23;20019;-87
2021/08/20 01:04:06;;;;;;;0.10;0.10;;;15.00;99.90;;;;;;6257573;23;20013;-87
2021/08/20 01:06:33;;;;;;;0.00;0.00;;;14.90;99.90;;;;;;6231940;23;20087;-87
2021/08/20 01:09:00;;;;;;;0.00;0.00;;;14.90;99.90;;;;;;6233141;23;20091;-87
2021/08/20 01:11:27;;;;;;;0.00;0.00;;;14.80;99.90;;;;;;6232313;23;20500;-87
2021/08/20 01:13:54;;;;;;;0.00;0.00;;;14.80;99.90;;;;;;6232815;23;20067;-87
2021/08/20 01:16:21;;;;;;;0.10;0.10;;;14.90;99.90;;;;;;6207503;23;20044;-87
2021/08/20 01:18:48;;;;;;;0.40;0.30;;;14.90;99.90;;;;;;6207188;23;21030;-87
2021/08/20 01:21:19;;;;;;;0.00;0.00;;;14.80;99.90;;;;;;6232482;23;20012;-87
2021/08/20 01:23:48;;;;;;;0.00;0.00;;;14.90;99.90;;;;;;6256735;23;20012;-88
2021/08/20 01:26:15;;;;;;;0.22;0.10;;;14.80;99.90;;;;;;6232245;23;20009;-87
2021/08/20 01:28:42;;;;;;;0.00;0.00;;;14.80;99.90;;;;;;6257063;23;20066;-87
2021/08/20 01:31:13;;;;;;;0.00;0.00;;;14.80;99.90;;;;;;6232228;23;20453;-87
2021/08/20 01:33:41;;;;;;;0.00;0.00;;;14.90;99.90;;;;;;6258018;23;20023;-87
2021/08/20 01:36:09;;;;;;;0.00;0.00;;;14.90;99.90;;;;;;6257427;23;20019;-87
2021/08/20 01:38:49;;;;;;;0.00;0.00;;;14.80;99.90;;;;;;6256990;23;20015;-87
2021/08/20 01:41:18;;;;;;;0.00;0.00;;;14.80;99.90;;;;;;6257877;23;20440;-88
2021/08/20 01:43:45;;;;;;;0.00;0.00;;;14.80;99.90;;;;;;6256756;23;20013;-87
2021/08/20 01:46:13;;;;;;;0.20;0.20;;;14.80;99.90;;;;;;6232587;23;20091;-88
2021/08/20 01:48:45;;;;;;;0.00;0.00;;;14.80;99.90;;;;;;6207502;23;20012;-88
2021/08/20 01:51:14;;;;;;;0.00;0.00;;;14.80;99.90;;;;;;6257515;23;20013;-87
2021/08/20 01:53:42;;;;;;;0.00;0.00;;;14.70;99.90;;;;;;6256511;23;20016;-87
2021/08/20 01:56:36;;;;;;;0.00;0.00;;;14.70;99.90;;;;;;6257417;23;20012;-87
2021/08/20 01:59:04;;;;;;;0.13;0.13;;;14.60;99.90;;;;;;6253812;23;20028;-87
2021/08/20 02:01:32;;;;;;;0.00;0.00;;;14.50;99.90;;;;;;6207606;23;20425;-87
2021/08/20 02:04:00;;;;;;;0.00;0.00;;;14.50;99.90;;;;;;6256909;23;20005;-87
2021/08/20 02:06:27;;;;;;;0.00;0.00;;;14.50;99.90;;;;;;6232043;23;20499;-87
2021/08/20 02:08:54;;;;;;;0.00;0.00;;;14.50;99.90;;;;;;6231831;23;20016;-87
2021/08/20 02:11:21;;;;;;;0.10;0.00;;;14.50;99.90;;;;;;6232555;23;20092;-87
2021/08/20 02:13:48;;;;;;;0.00;0.00;;;14.50;99.90;;;;;;6231500;23;20013;-87
2021/08/20 02:16:14;;;;;;;0.00;0.00;;;14.40;99.90;;;;;;6207548;23;20013;-87
2021/08/20 02:18:42;;;;;;;0.00;0.00;;;14.50;99.90;;;;;;6207265;23;20508;-87
2021/08/20 02:21:09;;;;;;;0.25;0.10;;;14.50;99.90;;;;;;6257453;23;20013;-87
2021/08/20 02:23:37;;;;;;;0.10;0.10;;;14.50;99.90;;;;;;6257763;23;20084;-87
2021/08/20 02:26:06;;;;;;;0.00;0.00;;;14.50;99.90;;;;;;6210341;23;20016;-87
2021/08/20 02:28:33;;;;;;;0.00;0.00;;;14.50;99.90;;;;;;6260477;23;20035;-87
2021/08/20 02:31:00;;;;;;;0.20;0.20;;;14.60;99.90;;;;;;6184323;23;20017;-87
2021/08/20 02:33:27;;;;;;;0.00;0.00;;;14.50;99.90;;;;;;6209637;23;20020;-87
2021/08/20 02:35:54;;;;;;;0.00;0.00;;;14.50;99.90;;;;;;6234212;23;20019;-87
2021/08/20 02:38:21;;;;;;;0.05;0.05;;;14.50;99.90;;;;;;6234381;23;20009;-87
2021/08/20 02:40:48;;;;;;;0.00;0.00;;;14.50;99.90;;;;;;6258241;23;20047;-87
2021/08/20 02:43:15;;;;;;;0.00;0.00;;;14.50;99.90;;;;;;6233918;23;20342;-87
2021/08/20 02:45:41;;;;;;;0.00;0.00;;;14.50;99.90;;;;;;6233301;23;20048;-87
2021/08/20 02:48:08;;;;;;;0.00;0.00;;;14.50;99.90;;;;;;6234006;23;20058;-87
2021/08/20 02:50:38;;;;;;;0.00;0.00;;;14.40;99.90;;;;;;6210165;23;20330;-87
2021/08/20 02:53:05;;;;;;;0.00;0.00;;;14.50;99.90;;;;;;6233503;23;20008;-87
2021/08/20 02:55:33;;;;;;;0.00;0.00;;;14.50;99.90;;;;;;6209261;23;20017;-87
2021/08/20 02:58:00;;;;;;;0.15;0.13;;;14.50;99.90;;;;;;6257656;23;20028;-87
2021/08/20 03:00:27;;;;;;;0.00;0.00;;;14.50;99.90;;;;;;6258352;23;20040;-87
2021/08/20 03:02:54;;;;;;;0.00;0.00;;;14.50;99.90;;;;;;6233041;23;20346;-87
2021/08/20 03:05:21;;;;;;;0.00;0.00;;;14.50;99.90;;;;;;6233249;23;20361;-87
2021/08/20 03:07:48;;;;;;;0.20;0.20;;;14.50;99.90;;;;;;6208129;23;20445;-87
2021/08/20 03:10:15;;;;;;;0.05;0.05;;;14.50;99.90;;;;;;6233380;23;20354;-87
2021/08/20 03:12:42;;;;;;;0.00;0.00;;;14.50;99.90;;;;;;6207980;23;20016;-87
2021/08/20 03:15:09;;;;;;;0.00;0.00;;;14.50;99.90;;;;;;6233033;23;20067;-87
2021/08/20 03:17:36;;;;;;;0.00;0.00;;;14.50;99.90;;;;;;6233839;23;20013;-87
2021/08/20 03:20:04;;;;;;;0.05;0.05;;;14.50;99.90;;;;;;6233202;23;20035;-87
2021/08/20 03:22:31;;;;;;;0.10;0.10;;;14.50;99.90;;;;;;6233648;23;20074;-87
2021/08/20 03:24:58;;;;;;;0.00;0.00;;;14.60;99.90;;;;;;6208381;23;20016;-87
2021/08/20 03:27:25;;;;;;;0.28;0.17;;;14.50;99.90;;;;;;6233390;23;20012;-87
2021/08/20 03:29:52;;;;;;;0.10;0.10;;;14.60;99.90;;;;;;6232935;23;20303;-87
2021/08/20 03:32:19;;;;;;;0.15;0.13;;;14.60;99.90;;;;;;6209226;23;20565;-87
2021/08/20 03:34:46;;;;;;;0.32;0.32;;;14.60;99.90;;;;;;6259160;23;20017;-88
2021/08/20 03:37:13;;;;;;;0.10;0.10;;;14.60;99.90;;;;;;6258153;23;20005;-86
2021/08/20 03:39:40;;;;;;;0.05;0.05;;;14.60;99.90;;;;;;6209097;23;20412;-87
2021/08/20 03:42:07;;;;;;;0.00;0.00;;;14.60;99.90;;;;;;6207987;23;20009;-88
2021/08/20 03:44:34;;;;;;;0.00;0.00;;;14.60;99.90;;;;;;6233920;23;20017;-87
2021/08/20 03:47:01;;;;;;;0.43;0.30;;;14.60;99.90;;;;;;6208128;23;20009;-87
2021/08/20 03:49:28;;;;;;;0.40;0.30;;;14.60;99.90;;;;;;6208361;23;20036;-87
2021/08/20 03:51:54;;;;;;;0.10;0.10;;;14.60;99.90;;;;;;6258089;23;20449;-87
2021/08/20 03:54:21;;;;;;;0.10;0.10;;;14.50;99.90;;;;;;6233580;23;20040;-87
2021/08/20 03:56:48;;;;;;;0.10;0.10;;;14.50;99.90;;;;;;6207784;23;20009;-88
2021/08/20 03:59:15;;;;;;;0.00;0.00;;;14.50;99.90;;;;;;6208687;23;20008;-87
2021/08/20 04:01:42;;;;;;;0.28;0.20;;;14.50;99.90;;;;;;6258299;23;20472;-87
2021/08/20 04:04:09;;;;;;;0.30;0.17;;;14.40;99.90;;;;;;6257783;23;20009;-87
2021/08/20 04:06:39;;;;;;;0.00;0.00;;;14.40;99.90;;;;;;6208402;23;20017;-87
2021/08/20 04:09:06;;;;;;;0.00;0.00;;;14.40;99.90;;;;;;6208106;23;20034;-87
2021/08/20 04:11:33;;;;;;;0.08;0.08;;;14.40;99.90;;;;;;6207770;23;20009;-87
2021/08/20 04:14:02;;;;;;;0.20;0.20;;;14.30;99.90;;;;;;6206845;23;20020;-87
2021/08/20 04:16:34;;;;;;;0.30;0.30;;;14.40;99.90;;;;;;6208103;23;20008;-87
2021/08/20 04:19:01;;;;;;;0.00;0.00;;;14.30;99.90;;;;;;6242026;23;20009;-87
2021/08/20 04:21:28;;;;;;;0.10;0.10;;;14.30;99.90;;;;;;6207296;23;20335;-87
2021/08/20 04:23:54;;;;;;;0.00;0.00;;;14.30;99.90;;;;;;6231539;23;20013;-87
2021/08/20 04:26:21;;;;;;;0.15;0.15;;;14.20;99.90;;;;;;6207884;23;20020;-87
2021/08/20 04:28:51;;;;;;;0.38;0.30;;;14.20;99.90;;;;;;6207302;23;20032;-87
2021/08/20 04:31:19;;;;;;;0.00;0.00;;;14.10;99.90;;;;;;6208669;23;20013;-87
2021/08/20 04:33:46;;;;;;;0.00;0.00;;;14.10;99.90;;;;;;6257903;23;20009;-87
2021/08/20 04:36:13;;;;;;;0.00;0.00;;;14.10;99.90;;;;;;6257438;23;20023;-87
2021/08/20 04:38:40;;;;;;;0.32;0.30;;;14.10;99.90;;;;;;6207931;23;20012;-88
2021/08/20 04:41:07;;;;;;;0.32;0.17;;;14.00;99.90;;;;;;6207907;23;20039;-88
2021/08/20 04:43:37;;;;;;;0.13;0.13;;;14.00;99.90;;;;;;6208281;23;20008;-87
2021/08/20 04:46:05;;;;;;;0.10;0.10;;;14.00;99.90;;;;;;6256811;23;20468;-88
2021/08/20 04:48:33;;;;;;;0.05;0.03;;;14.00;99.90;;;;;;6258070;23;20012;-87
2021/08/20 04:51:00;;;;;;;0.40;0.20;;;14.00;99.90;;;;;;6207327;23;20092;-87
2021/08/20 04:53:30;;;;;;;0.00;0.00;;;14.00;99.90;;;;;;6207974;23;20020;-87
2021/08/20 04:55:58;;;;;;;0.20;0.20;;;14.00;99.90;;;;;;6257151;23;20020;-87
2021/08/20 04:58:25;;;;;;;0.10;0.10;;;14.00;99.90;;;;;;6208388;23;20020;-87
2021/08/20 05:00:53;;;;;;;0.00;0.00;;;14.00;99.90;;;;;;6208306;23;20030;-87
2021/08/20 05:03:21;;;;;;;0.00;0.00;;;14.00;99.90;;;;;;6257132;23;20016;-87
2021/08/20 05:05:48;;;;;;;0.10;0.10;;;14.00;99.90;;;;;;6232381;23;20012;-87
2021/08/20 05:08:15;;;;;;;0.10;0.10;;;14.10;99.90;;;;;;6207832;23;20008;-87
2021/08/20 05:10:43;;;;;;;0.47;0.43;;;14.10;99.90;;;;;;6232698;23;20027;-87
2021/08/20 05:13:10;;;;;;;0.28;0.20;;;14.10;99.90;;;;;;6232293;23;20589;-88
2021/08/20 05:15:36;;;;;;;0.10;0.10;;;14.10;99.90;;;;;;6232805;23;20048;-87
2021/08/20 05:18:03;;;;;;;0.00;0.00;;;14.10;99.90;;;;;;6232016;23;20008;-88
2021/08/20 05:20:31;;;;;;;0.08;0.08;;;14.10;99.90;;;;;;6232464;23;20465;-87
2021/08/20 05:23:01;;;;;;;0.10;0.10;;;14.10;99.90;;;;;;6257038;23;20012;-88
2021/08/20 05:25:33;;;;;;;0.22;0.17;;;14.20;99.90;;;;;;6257478;23;20070;-89
2021/08/20 05:28:02;;;;;;;0.00;0.00;;;14.20;99.90;;;;;;6267177;23;20017;-86
2021/08/20 05:30:30;;;;;;;0.10;0.10;;;14.20;99.90;;;;;;6208148;23;20035;-90
2021/08/20 05:32:57;;;;;;;0.10;0.10;;;14.20;99.90;;;;;;6232796;23;20094;-90
2021/08/20 05:35:24;;;;;;;0.00;0.00;;;14.20;99.90;;;;;;6232328;23;20015;-88
2021/08/20 05:37:53;;;;;;;0.00;0.00;;;14.20;99.90;;;;;;6232784;23;20088;-90
2021/08/20 05:40:23;;;;;;;0.00;0.00;;;14.20;99.90;;;;;;6232301;23;20016;-91
2021/08/20 05:42:50;;;;;;;0.10;0.10;;;14.30;99.90;;;;;;6208716;23;20080;-92
2021/08/20 05:45:17;;;;;;;0.00;0.00;;;14.20;99.90;;;;;;6257659;23;20012;-94
2021/08/20 05:47:44;;;;;;;0.15;0.10;;;14.60;99.90;;;;;;6234787;23;20013;-93
2021/08/20 05:50:11;;;;;;;0.00;0.00;;;14.30;99.90;;;;;;6208682;23;20063;-92
2021/08/20 05:52:39;;;;;;;0.10;0.10;;;14.40;99.90;;;;;;6207892;23;20064;-92
2021/08/20 05:55:12;;;;;;;0.00;0.00;;;14.40;99.90;;;;;;6258269;23;20024;-90
2021/08/20 05:57:39;;;;;;;0.95;0.57;;;14.30;99.90;;;;;;6210396;23;20017;-89
2021/08/20 06:00:08;;;;;;;0.10;0.10;;;14.40;99.90;;;;;;6184690;23;20024;-91
2021/08/20 06:02:38;;;;;;;0.00;0.00;;;14.40;99.90;;;;;;6259288;23;20004;-91
2021/08/20 06:05:06;;;;;;;0.28;0.28;;;14.40;99.90;;;;;;6209152;23;20016;-89
2021/08/20 06:07:34;;;;;;;0.00;0.00;;;14.30;99.90;;;;;;6186412;23;20021;-92
2021/08/20 06:10:11;;;;;;;;;;;;;;;;;;;;;
2021/08/20 14:11:59;;;;;;;0.20;0.17;;;20.40;99.90;;;;;;5203109;27;20170;-88
2021/08/20 14:14:26;;;;;;;0.20;0.20;;;20.60;99.90;;;;;;5163061;27;20094;-89
2021/08/20 14:16:53;;;;;;;0.30;0.30;;;20.70;99.90;;;;;;5130077;28;20475;-88
2021/08/20 14:19:20;;;;;;;1.25;0.80;;;20.70;99.90;;;;;;5112086;28;20074;-88
2021/08/20 14:21:47;;;;;;;0.30;0.30;;;20.70;99.90;;;;;;5129536;28;20051;-86
2021/08/20 14:24:15;;;;;;;0.75;0.65;;;20.70;99.90;;;;;;5145381;28;20035;-86
2021/08/20 14:26:43;;;;;;;0.52;0.22;;;20.70;99.90;;;;;;5096364;28;20050;-91
2021/08/20 14:29:12;;;;;;;0.50;0.50;;;20.70;99.90;;;;;;5130974;28;20052;-90
2021/08/20 14:31:39;;;;;;;0.20;0.20;;;20.70;99.90;;;;;;5129882;28;20047;-90
2021/08/20 14:34:05;;;;;;;0.32;0.32;;;20.60;99.90;;;;;;5128972;28;20052;-87
2021/08/20 14:36:32;;;;;;;0.45;0.40;;;20.50;99.90;;;;;;5128779;28;20040;-88
2021/08/20 14:38:59;;;;;;;1.35;0.80;;;20.40;99.90;;;;;;5111790;28;20543;-88
2021/08/20 14:41:26;;;;;;;2.72;0.63;;;20.30;99.90;;;;;;5095166;28;20044;-87
2021/08/20 14:43:53;;;;;;;0.35;0.28;;;20.30;99.90;;;;;;5112077;28;20036;-92
2021/08/20 14:46:20;;;;;;;0.88;0.52;;;20.30;99.90;;;;;;5128999;28;20394;-91
2021/08/20 14:48:47;;;;;;;0.35;0.30;;;20.40;99.90;;;;;;5128984;28;20161;-92
2021/08/20 14:51:15;;;;;;;0.10;0.10;;;20.50;99.90;;;;;;5129058;28;20100;-92
2021/08/20 14:53:43;;;;;;;0.85;0.68;;;20.50;99.90;;;;;;5112361;28;20051;-91
2021/08/20 14:56:09;;;;;;;0.15;0.13;;;20.50;99.90;;;;;;5111955;28;20060;-92
2021/08/20 14:58:36;;;;;;;0.30;0.30;;;20.50;99.90;;;;;;5129597;28;20117;-92
2021/08/20 15:01:03;;;;;;;1.02;0.32;;;20.50;99.90;;;;;;5129329;28;20479;-92
2021/08/20 15:03:31;;;;;;;0.28;0.28;;;20.50;99.90;;;;;;5145695;28;20049;-91
2021/08/20 15:05:58;;;;;;;0.15;0.15;;;20.50;99.90;;;;;;5114014;28;20472;-92
2021/08/20 15:08:25;;;;;;;0.17;0.17;;;20.50;99.90;;;;;;5145659;28;20038;-91
2021/08/20 15:11:44;;;;;;;0.35;0.30;;;20.60;99.90;;;;;;5115354;28;20058;-92
2021/08/20 15:14:19;;;;;;;0.23;0.20;;;20.60;99.90;;;;;;5161137;28;20039;-92
2021/08/20 15:16:46;;;;;;;0.30;0.20;;;20.60;99.90;;;;;;5149322;28;20103;-92
2021/08/20 15:19:13;;;;;;;0.98;0.73;;;20.50;99.90;;;;;;5149260;28;20043;-92
2021/08/20 15:21:40;;;;;;;0.45;0.20;;;20.50;99.90;;;;;;5144320;28;20047;-92
2021/08/20 15:24:08;;;;;;;0.10;0.10;;;20.50;99.90;;;;;;5118635;28;20051;-92
2021/08/20 15:26:35;;;;;;;0.20;0.20;;;20.40;99.90;;;;;;5118836;28;20047;-92
2021/08/20 15:29:03;;;;;;;0.28;0.28;;;20.40;99.90;;;;;;5135002;28;20135;-92
2021/08/20 15:31:31;;;;;;;0.60;0.20;;;20.30;99.90;;;;;;5134266;28;20423;-92
2021/08/20 15:34:00;;;;;;;0.10;0.10;;;20.30;99.90;;;;;;5134800;28;20054;-91
2021/08/20 15:36:28;;;;;;;0.50;0.50;;;20.20;99.90;;;;;;5134730;28;20039;-92
2021/08/20 15:38:56;;;;;;;0.22;0.17;;;20.20;99.90;;;;;;5151747;28;20028;-92
2021/08/20 15:41:23;;;;;;;0.57;0.30;;;20.20;99.90;;;;;;5151099;28;20032;-92
2021/08/20 15:43:50;;;;;;;0.38;0.30;;;20.10;99.90;;;;;;5135013;28;20048;-92
2021/08/20 15:46:18;;;;;;;0.32;0.28;;;20.10;99.90;;;;;;5117745;28;20137;-92
2021/08/20 15:48:46;;;;;;;1.65;0.38;;;20.10;99.90;;;;;;5151744;28;20100;-92
2021/08/20 15:51:13;;;;;;;0.10;0.10;;;20.20;99.90;;;;;;5134575;28;20371;-92
2021/08/20 15:53:40;;;;;;;0.15;0.15;;;20.20;99.90;;;;;;5134708;28;20143;-92
2021/08/20 15:56:07;;;;;;;0.55;0.38;;;20.30;99.90;;;;;;5140029;28;20493;-92
2021/08/20 15:58:34;;;;;;;1.30;0.20;;;20.40;99.90;;;;;;5139688;28;20048;-92
2021/08/20 16:01:01;;;;;;;0.28;0.28;;;20.40;99.90;;;;;;5140611;28;20115;-92
2021/08/20 16:03:28;;;;;;;0.32;0.25;;;20.40;99.90;;;;;;5156556;28;20035;-92
2021/08/20 16:05:55;;;;;;;0.32;0.30;;;20.30;99.90;;;;;;5156736;28;20059;-92
2021/08/20 16:08:22;;;;;;;0.13;0.10;;;20.30;99.90;;;;;;5139867;28;20185;-91
2021/08/20 16:10:55;;;;;;;2.03;0.50;;;20.30;99.90;;;;;;5122197;28;20415;-92
2021/08/20 16:13:23;;;;;;;0.10;0.10;;;20.20;99.90;;;;;;5139397;28;20051;-91
2021/08/20 16:15:50;;;;;;;0.10;0.10;;;20.20;99.90;;;;;;5122683;28;20494;-92
2021/08/20 16:18:18;;;;;;;0.10;0.10;;;20.20;99.90;;;;;;5124200;28;20070;-92
2021/08/20 16:20:45;;;;;;;0.90;0.57;;;20.10;99.90;;;;;;5141214;28;20052;-91
2021/08/20 16:23:16;;;;;;;0.10;0.10;;;20.10;99.90;;;;;;5153429;28;20089;-91
2021/08/20 16:25:43;;;;;;;0.15;0.13;;;20.10;99.90;;;;;;5135108;28;20142;-91
2021/08/20 16:28:10;;;;;;;0.17;0.17;;;20.00;99.90;;;;;;5153005;28;20047;-91
2021/08/20 16:30:37;;;;;;;0.20;0.20;;;20.00;99.90;;;;;;5134790;28;20584;-91
2021/08/20 16:33:04;;;;;;;0.10;0.10;;;20.00;99.90;;;;;;5135238;28;20063;-91
2021/08/20 16:35:33;;;;;;;0.40;0.30;;;20.10;99.90;;;;;;5151570;28;20034;-91
2021/08/20 16:38:01;;;;;;;0.10;0.10;;;20.00;99.90;;;;;;5119952;28;20063;-91
2021/08/20 16:40:29;;;;;;;0.00;0.00;;;20.10;99.90;;;;;;5136221;28;20110;-91
2021/08/20 16:42:56;;;;;;;0.10;0.10;;;20.10;99.90;;;;;;5133814;28;20051;-91
2021/08/20 16:45:23;;;;;;;0.15;0.15;;;20.10;99.90;;;;;;5114919;28;20040;-91
2021/08/20 16:47:50;;;;;;;0.28;0.28;;;20.10;99.90;;;;;;5131647;28;20036;-91
2021/08/20 16:50:17;;;;;;;0.10;0.10;;;19.90;99.90;;;;;;5115728;28;20032;-91
2021/08/20 16:52:44;;;;;;;0.10;0.10;;;19.90;99.90;;;;;;5098750;28;20075;-91
2021/08/20 16:55:11;;;;;;;0.17;0.10;;;19.90;99.90;;;;;;5115266;28;20131;-91
2021/08/20 16:57:38;;;;;;;0.20;0.20;;;19.90;99.90;;;;;;5113579;28;20079;-91
2021/08/20 17:00:06;;;;;;;0.22;0.20;;;19.90;99.90;;;;;;5113487;28;20054;-92
2021/08/20 17:02:33;;;;;;;0.10;0.10;;;19.80;99.90;;;;;;5097100;28;20058;-91
2021/08/20 17:05:00;;;;;;;0.10;0.10;;;19.80;99.90;;;;;;5113235;28;20064;-92
2021/08/20 17:07:29;;;;;;;0.10;0.10;;;19.80;99.90;;;;;;5095923;28;20075;-91
2021/08/20 17:09:57;;;;;;;0.00;0.00;;;19.70;99.90;;;;;;5112555;28;20117;-90
2021/08/20 17:12:24;;;;;;;0.20;0.20;;;19.70;99.90;;;;;;5129415;28;20043;-91
2021/08/20 17:14:51;;;;;;;0.20;0.20;;;19.70;99.90;;;;;;5134509;28;20044;-91
2021/08/20 17:17:18;;;;;;;0.32;0.30;;;19.70;99.90;;;;;;5133822;28;20047;-91
2021/08/20 17:19:45;;;;;;;0.35;0.10;;;19.60;99.90;;;;;;5132856;28;20047;-91
2021/08/20 17:22:12;;;;;;;0.10;0.10;;;19.50;99.90;;;;;;5132602;28;20050;-91
2021/08/20 17:24:39;;;;;;;0.35;0.35;;;19.40;99.90;;;;;;5149762;28;20046;-91
2021/08/20 17:27:08;;;;;;;0.00;0.00;;;19.40;99.90;;;;;;5149881;28;20031;-92
2021/08/20 17:29:35;;;;;;;0.03;0.03;;;19.30;99.90;;;;;;5132944;28;20039;-91
2021/08/20 17:32:02;;;;;;;0.08;0.08;;;19.20;99.90;;;;;;5133169;28;20478;-91
2021/08/20 17:34:29;;;;;;;0.10;0.10;;;19.20;99.90;;;;;;5149274;28;20478;-91
2021/08/20 17:36:56;;;;;;;0.52;0.32;;;19.10;99.90;;;;;;5116067;28;20039;-91
2021/08/20 17:39:25;;;;;;;0.93;0.50;;;19.00;99.90;;;;;;5149690;28;20035;-91
2021/08/20 17:41:52;;;;;;;0.00;0.00;;;19.00;99.90;;;;;;5132471;28;20044;-91
2021/08/20 17:44:19;;;;;;;0.00;0.00;;;18.80;99.90;;;;;;5132530;28;20035;-91
2021/08/20 17:46:45;;;;;;;0.22;0.20;;;18.80;99.90;;;;;;5133600;28;20570;-92
2021/08/20 17:49:12;;;;;;;0.10;0.10;;;18.80;99.90;;;;;;5133836;28;20490;-92
2021/08/20 17:51:39;;;;;;;0.00;0.00;;;18.70;99.90;;;;;;5133824;28;20039;-91
2021/08/20 17:54:06;;;;;;;0.00;0.00;;;18.60;99.90;;;;;;5133931;28;20071;-91
2021/08/20 17:56:33;;;;;;;0.05;0.05;;;18.50;99.90;;;;;;5150184;28;20511;-92
2021/08/20 17:59:00;;;;;;;0.08;0.08;;;18.50;99.90;;;;;;5150931;28;20032;-92
2021/08/20 18:01:27;;;;;;;0.20;0.20;;;18.40;99.90;;;;;;5134328;28;20047;-92
2021/08/20 18:03:53;;;;;;;0.00;0.00;;;18.30;99.90;;;;;;5116406;28;20052;-92
2021/08/20 18:06:21;;;;;;;0.20;0.20;;;18.30;99.90;;;;;;5116784;28;20376;-91
2021/08/20 18:08:48;;;;;;;0.10;0.10;;;18.20;99.90;;;;;;5150040;28;20032;-92
2021/08/20 18:11:15;;;;;;;0.25;0.10;;;18.10;99.90;;;;;;5132295;28;20135;-91
2021/08/20 18:13:43;;;;;;;0.00;0.00;;;18.10;99.90;;;;;;5148954;28;20031;-91
2021/08/20 18:16:10;;;;;;;0.17;0.17;;;18.00;99.90;;;;;;5131941;28;20036;-92
2021/08/20 18:18:36;;;;;;;0.10;0.10;;;17.90;99.90;;;;;;5115179;28;20398;-92
2021/08/20 18:21:04;;;;;;;0.00;0.00;;;17.80;99.90;;;;;;5132084;28;20419;-91
2021/08/20 18:23:31;;;;;;;0.10;0.10;;;17.80;99.90;;;;;;5131995;28;20066;-91
2021/08/20 18:25:58;;;;;;;0.32;0.17;;;17.70;99.90;;;;;;5131742;28;20090;-91
2021/08/20 18:28:25;;;;;;;0.55;0.38;;;17.70;99.90;;;;;;5102374;28;20488;-91
2021/08/20 18:30:54;;;;;;;0.10;0.10;;;17.60;99.90;;;;;;5115495;28;20471;-92
2021/08/20 18:33:24;;;;;;;0.10;0.10;;;17.50;99.90;;;;;;5115142;28;20467;-90
2021/08/20 18:35:52;;;;;;;0.30;0.30;;;17.50;99.90;;;;;;5130952;28;20035;-91
2021/08/20 18:38:21;;;;;;;0.30;0.15;;;17.40;99.90;;;;;;5132019;28;20113;-92
2021/08/20 18:40:49;;;;;;;0.00;0.00;;;17.30;99.90;;;;;;5131320;28;20062;-95
2021/08/20 18:43:15;;;;;;;0.17;0.17;;;17.30;99.90;;;;;;5114831;28;20043;-92
2021/08/20 18:45:42;;;;;;;0.00;0.00;;;17.20;99.90;;;;;;5110137;28;20044;-92
2021/08/20 18:48:09;;;;;;;0.00;0.00;;;17.10;99.90;;;;;;5127459;28;20131;-92
2021/08/20 18:50:41;;;;;;;0.52;0.50;;;17.10;99.90;;;;;;5110711;28;20067;-93
2021/08/20 18:53:08;;;;;;;0.00;0.00;;;17.00;99.90;;;;;;5111250;28;20048;-92
2021/08/20 18:55:36;;;;;;;0.55;0.40;;;17.00;99.90;;;;;;5094939;28;20060;-92
2021/08/20 18:58:03;;;;;;;1.10;0.47;;;16.90;99.90;;;;;;5113702;28;20036;-92
2021/08/20 19:00:31;;;;;;;0.22;0.22;;;16.90;99.90;;;;;;5134400;28;20539;-92
2021/08/20 19:02:58;;;;;;;0.00;0.00;;;16.90;99.90;;;;;;5151836;28;20084;-92
2021/08/20 19:05:25;;;;;;;0.20;0.20;;;16.80;99.90;;;;;;5152316;28;20364;-91
2021/08/20 19:07:51;;;;;;;0.00;0.00;;;16.80;99.90;;;;;;5151694;28;20036;-91
2021/08/20 19:10:20;;;;;;;0.00;0.00;;;16.70;99.90;;;;;;5134717;28;20040;-91
2021/08/20 19:12:47;;;;;;;0.35;0.20;;;16.70;99.90;;;;;;5134791;28;20071;-91
2021/08/20 19:15:14;;;;;;;1.08;0.75;;;16.70;99.90;;;;;;5135343;28;20071;-92
2021/08/20 19:17:41;;;;;;;0.17;0.17;;;16.60;99.90;;;;;;5135170;28;20046;-92
2021/08/20 19:20:09;;;;;;;0.00;0.00;;;16.60;99.90;;;;;;5118568;28;20047;-92
2021/08/20 19:22:37;;;;;;;0.30;0.20;;;16.50;99.90;;;;;;5151918;28;20123;-92
2021/08/20 19:25:07;;;;;;;0.10;0.10;;;16.60;99.90;;;;;;5152112;28;20058;-91
2021/08/20 19:27:35;;;;;;;0.00;0.00;;;16.50;99.90;;;;;;5115671;28;20056;-91
2021/08/20 19:30:03;;;;;;;0.10;0.10;;;16.50;99.90;;;;;;5134391;28;20380;-92
2021/08/20 19:32:30;;;;;;;0.08;0.08;;;16.40;99.90;;;;;;5144436;28;20471;-92
2021/08/20 19:34:56;;;;;;;0.00;0.00;;;16.40;99.90;;;;;;5133354;28;20096;-92
2021/08/20 19:37:23;;;;;;;0.00;0.00;;;16.40;99.90;;;;;;5101156;28;20048;-91
2021/08/20 19:39:50;;;;;;;0.00;0.00;;;16.40;99.90;;;;;;5117867;28;20135;-91
2021/08/20 19:42:17;;;;;;;0.45;0.38;;;16.40;99.90;;;;;;5151406;28;20055;-92
2021/08/20 19:44:44;;;;;;;0.35;0.30;;;16.40;99.90;;;;;;5151182;28;20470;-92
2021/08/20 19:47:11;;;;;;;0.00;0.00;;;16.40;99.90;;;;;;5151274;28;20039;-92
2021/08/20 19:49:38;;;;;;;0.05;0.05;;;16.40;99.90;;;;;;5134710;28;20485;-91
2021/08/20 19:52:05;;;;;;;0.22;0.13;;;16.40;99.90;;;;;;5134084;28;20036;-91
2021/08/20 19:54:32;;;;;;;0.20;0.20;;;16.40;99.90;;;;;;5118142;28;20043;-90
2021/08/20 19:56:59;;;;;;;0.03;0.03;;;16.40;99.90;;;;;;5151783;28;20169;-92
2021/08/20 19:59:26;;;;;;;0.10;0.10;;;16.40;99.90;;;;;;5134670;28;20051;-92
2021/08/20 20:01:52;;;;;;;0.00;0.00;;;16.40;99.90;;;;;;5125953;28;20421;-91
2021/08/20 20:04:19;;;;;;;0.00;0.00;;;16.40;99.90;;;;;;5123610;28;20100;-92
2021/08/20 20:06:46;;;;;;;0.05;0.05;;;16.40;99.90;;;;;;5121381;28;20082;-92
2021/08/20 20:09:14;;;;;;;0.00;0.00;;;16.40;99.90;;;;;;5137841;28;20024;-92
2021/08/20 20:11:42;;;;;;;0.20;0.08;;;16.40;99.90;;;;;;5133296;28;20122;-92
2021/08/20 20:14:08;;;;;;;0.00;0.00;;;16.40;99.90;;;;;;5113757;28;20036;-93
2021/08/20 20:16:35;;;;;;;0.05;0.05;;;16.40;99.90;;;;;;5123076;28;20039;-91
2021/08/20 20:19:02;;;;;;;0.20;0.10;;;16.30;99.90;;;;;;5115478;28;20047;-93
2021/08/20 20:21:29;;;;;;;0.10;0.10;;;16.30;99.90;;;;;;5130245;28;20086;-93
2021/08/20 20:23:57;;;;;;;0.00;0.00;;;16.20;99.90;;;;;;5135466;28;20127;-93
2021/08/20 20:26:24;;;;;;;0.05;0.05;;;16.20;99.90;;;;;;5131190;28;20547;-93
2021/08/20 20:28:51;;;;;;;0.10;0.10;;;16.20;99.90;;;;;;5121176;28;20076;-94
2021/08/20 20:31:18;;;;;;;0.38;0.10;;;16.20;99.90;;;;;;5124247;28;20087;-92
2021/08/20 20:33:45;;;;;;;0.10;0.10;;;16.10;99.90;;;;;;5103509;28;20051;-93
2021/08/20 20:36:12;;;;;;;0.50;0.17;;;16.10;99.90;;;;;;5131814;28;20123;-92
2021/08/20 20:38:39;;;;;;;0.00;0.00;;;16.10;99.90;;;;;;5113264;28;20047;-92
2021/08/20 20:41:06;;;;;;;0.03;0.03;;;16.10;99.90;;;;;;5118451;28;20301;-92
2021/08/20 20:43:33;;;;;;;0.00;0.00;;;16.10;99.90;;;;;;5105053;28;20046;-92
2021/08/20 20:46:00;;;;;;;0.25;0.25;;;16.10;99.90;;;;;;5133572;28;20057;-92
2021/08/20 20:48:27;;;;;;;0.28;0.28;;;16.10;99.90;;;;;;5132628;28;20044;-90